This is the latest recevied weather packets stored in our database for station/object AA0RD-13. If no packets are shown the sender has not sent any weather packets the latest 10 day(s).
| Time | Temp. | Humidity | Pressure | Rain* | Wind** | Luminosity | Snow |
|---|---|---|---|---|---|---|---|
| 1777927697 | 12.78° C | 90% | 1010.8 hPa | 0 mm | - | - | - |
| 1777927120 | 13.33° C | 87% | 1010.8 hPa | 0 mm | - | - | - |
| 1777926502 | 13.89° C | 86% | 1010.9 hPa | 0 mm | - | - | - |
| 1777926213 | 13.89° C | 86% | 1010.8 hPa | 0 mm | - | - | - |
| 1777925906 | 13.33° C | 85% | 1010.8 hPa | 0 mm | - | - | - |
| 1777925310 | 13.33° C | 86% | 1010.7 hPa | 0 mm | - | - | - |
| 1777924697 | 13.33° C | 85% | 1010.9 hPa | 0 mm | - | - | - |
| 1777923810 | 13.89° C | 83% | 1010.8 hPa | 0 mm | - | - | - |
| 1777923522 | 13.89° C | 82% | 1010.9 hPa | 0 mm | - | - | - |
| 1777923213 | 13.89° C | 81% | 1010.8 hPa | 0 mm | - | - | - |
| 1777922904 | 14.44° C | 80% | 1010.8 hPa | 0 mm | - | - | - |
| 1777922308 | 15.56° C | 74% | 1010.8 hPa | 0 mm | - | - | - |
| 1777921713 | 16.11° C | 72% | 1010.8 hPa | 0 mm | - | - | - |
| 1777920809 | 17.78° C | 67% | 1010.7 hPa | 0 mm | - | - | - |
| 1777920212 | 18.33° C | 67% | 1010.5 hPa | 0 mm | - | - | - |
| 1777919594 | 17.78° C | 68% | 1010.6 hPa | 0 mm | - | - | - |
| 1777917806 | 16.67° C | 73% | 1010.8 hPa | 0 mm | - | - | - |
| 1777916616 | 16.11° C | 76% | 1010.8 hPa | 0 mm | - | - | - |
| 1777916306 | 16.11° C | 78% | 1010.8 hPa | 0 mm | - | - | - |
| 1777914495 | 13.89° C | 83% | 1010.9 hPa | 0 mm | - | - | - |
| 1777913595 | 14.44° C | 82% | 1010.8 hPa | 0 mm | - | - | - |
| 1777912399 | 13.33° C | 82% | 1010.8 hPa | 0 mm | - | - | - |
| 1777908813 | 12.78° C | 80% | 1010.4 hPa | 0 mm | - | - | - |
| 1777908505 | 13.33° C | 78% | 1010.3 hPa | 0 mm | - | - | - |
| 1777908197 | 13.89° C | 75% | 1010.2 hPa | 0 mm | - | - | - |
* Rain latest hour (hover to see other rain measurements)
** Current wind speed in m/s (hover to see current wind gust speed)